createdAt,value
2018-11-02T00:01:34.012Z,5.60
2018-11-02T00:03:38.078Z,4.93
2018-11-02T00:05:42.143Z,5.27
2018-11-02T00:07:46.222Z,4.93
2018-11-02T00:09:50.922Z,4.20
2018-11-02T00:11:55.007Z,4.53
2018-11-02T00:13:59.034Z,4.13
2018-11-02T00:16:03.142Z,4.07
2018-11-02T00:18:07.213Z,4.13
2018-11-02T00:20:11.279Z,7.37
2018-11-02T00:22:15.360Z,4.50
2018-11-02T00:24:19.428Z,4.57
2018-11-02T00:26:23.471Z,4.33
2018-11-02T00:28:27.582Z,4.00
2018-11-02T00:30:31.691Z,4.20
2018-11-02T00:32:35.799Z,4.20
2018-11-02T00:34:39.863Z,3.73
2018-11-02T00:36:44.672Z,4.93
2018-11-02T00:38:48.700Z,4.17
2018-11-02T00:40:53.059Z,3.67
2018-11-02T00:42:57.190Z,3.87
2018-11-02T00:45:01.305Z,3.57
2018-11-02T00:47:05.401Z,3.50
2018-11-02T00:49:09.487Z,4.03
2018-11-02T00:51:13.570Z,5.53
2018-11-02T00:53:17.627Z,3.70
2018-11-02T00:55:21.715Z,2.90
2018-11-02T00:57:25.857Z,3.40
2018-11-02T00:59:29.893Z,3.40
2018-11-02T01:01:34.030Z,4.10
2018-11-02T01:03:38.619Z,4.13
2018-11-02T01:05:42.645Z,3.60
2018-11-02T01:07:46.708Z,2.93
2018-11-02T01:09:50.829Z,5.50
2018-11-02T01:11:54.882Z,3.20
2018-11-02T01:13:59.389Z,4.67
2018-11-02T01:16:03.425Z,3.23
2018-11-02T01:18:07.517Z,2.80
2018-11-02T01:20:12.092Z,3.10
2018-11-02T01:22:16.147Z,3.40
2018-11-02T01:24:20.267Z,5.20
2018-11-02T01:26:24.314Z,3.43
2018-11-02T01:28:28.384Z,4.93
2018-11-02T01:30:32.473Z,2.63
2018-11-02T01:32:36.514Z,3.03
2018-11-02T01:34:40.609Z,1.90
2018-11-02T01:36:44.731Z,3.10
2018-11-02T01:38:48.785Z,2.30
2018-11-02T01:40:52.884Z,2.10
2018-11-02T01:42:56.938Z,3.33
2018-11-02T01:45:00.999Z,1.77
2018-11-02T01:47:05.350Z,4.77
2018-11-02T01:49:09.481Z,3.80
2018-11-02T01:51:13.504Z,4.23
2018-11-02T01:53:17.610Z,3.17
2018-11-02T01:55:21.672Z,3.53
2018-11-02T01:57:25.723Z,3.63
2018-11-02T01:59:29.781Z,1.87
2018-11-02T02:01:34.734Z,2.73
2018-11-02T02:03:38.805Z,2.42
2018-11-02T02:05:42.854Z,4.47
2018-11-02T02:07:46.996Z,2.87
2018-11-02T02:09:51.066Z,2.25
2018-11-02T02:11:55.121Z,3.83
2018-11-02T02:13:59.208Z,6.17
2018-11-02T02:16:03.266Z,2.67
2018-11-02T02:18:07.342Z,2.33
2018-11-02T02:20:11.437Z,2.00
2018-11-02T02:22:15.525Z,3.23
2018-11-02T02:24:19.610Z,2.20
2018-11-02T02:26:23.687Z,6.33
2018-11-02T02:28:27.764Z,2.87
2018-11-02T02:30:31.855Z,3.80
2018-11-02T02:32:36.314Z,3.43
2018-11-02T02:34:40.366Z,2.25
2018-11-02T02:36:44.447Z,1.50
2018-11-02T02:38:48.578Z,2.10
2018-11-02T02:40:52.610Z,1.80
2018-11-02T02:42:56.683Z,1.50
2018-11-02T02:45:00.749Z,1.93
2018-11-02T02:47:04.871Z,2.43
2018-11-02T02:49:08.950Z,2.27
2018-11-02T02:51:12.999Z,1.93
2018-11-02T02:53:17.049Z,1.37
2018-11-02T02:55:21.131Z,2.75
2018-11-02T02:57:25.234Z,1.47
2018-11-02T02:59:29.326Z,1.50
2018-11-02T03:01:33.425Z,2.17
2018-11-02T03:03:37.498Z,5.03
2018-11-02T03:05:41.658Z,1.87
2018-11-02T03:07:45.732Z,1.57
2018-11-02T03:09:49.949Z,2.67
2018-11-02T03:11:55.083Z,1.03
2018-11-02T03:13:59.155Z,1.80
2018-11-02T03:16:03.192Z,1.10
2018-11-02T03:18:07.332Z,1.10
2018-11-02T03:20:11.584Z,1.07
2018-11-02T03:22:15.676Z,1.57
2018-11-02T03:24:19.675Z,0.98
2018-11-02T03:26:23.750Z,1.27
2018-11-02T03:28:27.866Z,1.17
2018-11-02T03:30:31.939Z,0.97
2018-11-02T03:32:36.054Z,1.90
2018-11-02T03:34:40.232Z,5.30
2018-11-02T03:36:44.275Z,1.47
2018-11-02T03:38:48.363Z,1.63
2018-11-02T03:40:52.435Z,1.85
2018-11-02T03:42:56.499Z,2.40
2018-11-02T03:45:00.589Z,2.10
2018-11-02T03:47:04.738Z,2.25
2018-11-02T03:49:08.976Z,2.40
2018-11-02T03:51:13.024Z,2.87
2018-11-02T03:53:17.259Z,2.83
2018-11-02T03:55:21.317Z,2.30
2018-11-02T03:57:25.383Z,2.42
2018-11-02T03:59:29.503Z,2.40
2018-11-02T04:01:33.583Z,2.50
2018-11-02T04:03:37.702Z,2.90
2018-11-02T04:05:41.761Z,2.67
2018-11-02T04:07:45.850Z,2.60
2018-11-02T04:09:49.890Z,2.23
2018-11-02T04:11:53.942Z,2.63
2018-11-02T04:13:57.995Z,2.03
2018-11-02T04:16:02.073Z,3.45
2018-11-02T04:18:07.129Z,2.10
2018-11-02T04:20:11.338Z,2.25
2018-11-02T04:22:15.998Z,4.50
2018-11-02T04:24:20.115Z,3.47
2018-11-02T04:26:24.196Z,2.40
2018-11-02T04:28:28.274Z,2.60
2018-11-02T04:30:32.334Z,2.12
2018-11-02T04:32:36.391Z,3.37
2018-11-02T04:34:40.437Z,2.27
2018-11-02T04:36:44.508Z,3.47
2018-11-02T04:38:48.594Z,3.62
2018-11-02T04:40:52.676Z,2.83
2018-11-02T04:42:56.742Z,3.23
2018-11-02T04:45:00.797Z,2.60
2018-11-02T04:47:05.090Z,4.00
2018-11-02T04:49:09.627Z,3.37
2018-11-02T04:51:13.802Z,4.45
2018-11-02T04:53:17.781Z,2.80
2018-11-02T04:55:21.872Z,3.15
2018-11-02T04:57:25.998Z,4.92
2018-11-02T04:59:30.358Z,3.23
2018-11-02T05:01:34.484Z,4.30
2018-11-02T05:03:38.558Z,3.63
2018-11-02T05:05:42.607Z,2.98
2018-11-02T05:07:46.755Z,4.03
2018-11-02T05:09:50.816Z,3.47
2018-11-02T05:11:54.902Z,3.70
2018-11-02T05:13:59.034Z,3.43
2018-11-02T05:16:03.138Z,4.17
2018-11-02T05:18:07.613Z,3.23
2018-11-02T05:20:11.876Z,4.17
2018-11-02T05:22:16.498Z,3.87
2018-11-02T05:24:20.619Z,4.40
2018-11-02T05:26:24.710Z,4.07
2018-11-02T05:28:28.823Z,3.50
2018-11-02T05:30:32.886Z,4.57
2018-11-02T05:32:36.942Z,3.73
2018-11-02T05:34:41.032Z,4.60
2018-11-02T05:36:45.781Z,4.42
2018-11-02T05:38:49.837Z,3.80
2018-11-02T05:40:53.977Z,5.20
2018-11-02T05:42:58.054Z,5.87
2018-11-02T05:45:02.133Z,4.05
2018-11-02T05:47:06.416Z,5.83
2018-11-02T05:49:10.522Z,5.05
2018-11-02T05:51:14.721Z,4.60
2018-11-02T05:53:18.763Z,4.13
2018-11-02T05:55:22.809Z,4.37
2018-11-02T05:57:26.912Z,4.70
2018-11-02T05:59:30.966Z,5.78
2018-11-02T06:01:35.098Z,4.67
2018-11-02T06:03:39.098Z,4.97
2018-11-02T06:05:43.166Z,5.17
2018-11-02T06:07:47.281Z,4.50
2018-11-02T06:09:51.370Z,5.47
2018-11-02T06:11:55.425Z,6.63
2018-11-02T06:13:59.539Z,7.10
2018-11-02T06:16:03.694Z,4.65
2018-11-02T06:18:07.792Z,6.47
2018-11-02T06:20:11.970Z,5.45
2018-11-02T06:22:17.145Z,4.50
2018-11-02T06:24:21.380Z,5.83
2018-11-02T06:26:25.236Z,4.80
2018-11-02T06:28:29.360Z,5.50
2018-11-02T06:30:33.525Z,5.20
2018-11-02T06:32:37.598Z,5.87
2018-11-02T06:34:41.627Z,5.70
2018-11-02T06:36:45.731Z,5.90
2018-11-02T06:38:49.845Z,8.83
2018-11-02T06:40:53.865Z,4.67
2018-11-02T06:42:57.953Z,5.43
2018-11-02T06:45:02.026Z,4.75
2018-11-02T06:47:06.095Z,5.87
2018-11-02T06:49:10.123Z,4.75
2018-11-02T06:51:14.207Z,7.25
2018-11-02T06:53:18.310Z,5.67
2018-11-02T06:55:22.350Z,5.60
2018-11-02T06:57:26.419Z,6.25
2018-11-02T06:59:30.710Z,5.50
2018-11-02T07:01:34.866Z,6.85
2018-11-02T07:03:38.922Z,5.50
2018-11-02T07:05:43.061Z,5.35
2018-11-02T07:07:53.883Z,5.15
2018-11-02T07:09:57.848Z,5.03
2018-11-02T07:12:01.942Z,5.08
2018-11-02T07:14:06.497Z,5.55
2018-11-02T07:16:10.623Z,7.47
2018-11-02T07:18:14.710Z,5.97
2018-11-02T07:20:18.769Z,5.33
2018-11-02T07:22:22.870Z,5.25
2018-11-02T07:24:26.935Z,5.93
2018-11-02T07:26:31.013Z,5.90
2018-11-02T07:28:35.119Z,7.37
2018-11-02T07:30:39.239Z,7.43
2018-11-02T07:32:43.333Z,4.93
2018-11-02T07:34:47.490Z,5.40
2018-11-02T07:36:51.554Z,5.93
2018-11-02T07:38:55.651Z,5.12
2018-11-02T07:41:00.138Z,6.83
2018-11-02T07:43:04.338Z,5.05
2018-11-02T07:45:09.316Z,5.85
2018-11-02T07:47:13.420Z,6.30
2018-11-02T07:49:17.531Z,6.63
2018-11-02T07:51:21.626Z,5.93
2018-11-02T07:53:25.697Z,6.33
2018-11-02T07:55:29.930Z,8.93
2018-11-02T07:57:33.978Z,6.30
2018-11-02T07:59:38.110Z,7.67
2018-11-02T08:01:42.163Z,5.78
2018-11-02T08:03:46.270Z,5.10
2018-11-02T08:05:50.360Z,7.58
2018-11-02T08:07:54.492Z,5.90
2018-11-02T08:09:58.559Z,7.97
2018-11-02T08:12:02.664Z,6.57
2018-11-02T08:14:06.830Z,5.87
2018-11-02T08:16:10.945Z,8.20
2018-11-02T08:18:15.028Z,7.20
2018-11-02T08:20:19.169Z,6.55
2018-11-02T08:22:23.299Z,7.57
2018-11-02T08:24:27.422Z,8.23
2018-11-02T08:26:31.546Z,5.90
2018-11-02T08:28:35.694Z,5.73
2018-11-02T08:30:39.778Z,6.20
2018-11-02T08:32:44.873Z,6.30
2018-11-02T08:34:49.027Z,7.65
2018-11-02T08:36:53.130Z,6.47
2018-11-02T08:38:57.262Z,6.17
2018-11-02T08:41:01.379Z,4.90
2018-11-02T08:43:05.641Z,6.57
2018-11-02T08:45:10.625Z,6.23
2018-11-02T08:47:14.702Z,5.97
2018-11-02T08:49:18.782Z,5.90
2018-11-02T08:51:22.862Z,9.08
2018-11-02T08:53:26.942Z,5.17
2018-11-02T08:55:31.073Z,5.40
2018-11-02T08:57:35.219Z,6.17
2018-11-02T08:59:39.764Z,6.00
2018-11-02T09:01:43.846Z,6.37
2018-11-02T09:03:47.950Z,8.60
2018-11-02T09:05:52.031Z,6.05
2018-11-02T09:07:56.133Z,8.63
2018-11-02T09:10:00.251Z,5.20
2018-11-02T09:12:04.444Z,6.80
2018-11-02T09:14:08.509Z,5.63
2018-11-02T09:16:12.577Z,6.60
2018-11-02T09:18:16.656Z,4.55
2018-11-02T09:20:20.746Z,5.62
2018-11-02T09:22:24.873Z,5.17
2018-11-02T09:24:28.969Z,5.57
2018-11-02T09:26:33.059Z,9.13
2018-11-02T09:28:37.307Z,5.60
2018-11-02T09:30:41.414Z,5.17
2018-11-02T09:32:45.898Z,5.93
2018-11-02T09:34:50.118Z,6.27
2018-11-02T09:36:54.217Z,6.53
2018-11-02T09:38:58.262Z,6.47
2018-11-02T09:41:02.342Z,8.98
2018-11-02T09:43:06.475Z,5.10
2018-11-02T09:45:13.339Z,7.83
2018-11-02T09:47:17.445Z,7.72
2018-11-02T09:49:21.502Z,7.50
2018-11-02T09:51:27.740Z,6.63
2018-11-02T09:53:31.889Z,7.40
2018-11-02T09:55:36.062Z,5.97
2018-11-02T09:57:40.163Z,7.55
2018-11-02T09:59:44.184Z,7.08
2018-11-02T10:01:48.275Z,6.77
2018-11-02T10:03:52.351Z,7.70
2018-11-02T10:05:56.411Z,10.30
2018-11-02T10:08:00.540Z,5.77
2018-11-02T10:10:05.822Z,6.97
2018-11-02T10:12:09.915Z,7.47
2018-11-02T10:14:13.984Z,7.97
2018-11-02T10:16:18.036Z,6.62
2018-11-02T10:18:22.654Z,9.03
2018-11-02T10:20:26.709Z,5.57
2018-11-02T10:22:30.851Z,7.13
2018-11-02T10:24:34.983Z,10.55
2018-11-02T10:26:39.115Z,7.15
2018-11-02T10:28:43.133Z,7.47
2018-11-02T10:30:48.349Z,5.50
2018-11-02T10:32:54.882Z,6.17
2018-11-02T10:35:00.420Z,5.55
2018-11-02T10:37:04.651Z,5.72
2018-11-02T10:39:12.030Z,6.30
2018-11-02T10:41:20.333Z,5.97
2018-11-02T10:43:25.962Z,4.03
2018-11-02T10:45:34.567Z,5.70
2018-11-02T10:47:38.655Z,4.53
2018-11-02T10:49:42.745Z,6.80
2018-11-02T10:51:46.872Z,4.10
2018-11-02T10:53:50.958Z,5.03
2018-11-02T10:55:55.051Z,5.42
2018-11-02T10:57:59.126Z,7.37
2018-11-02T11:00:03.161Z,3.75
2018-11-02T11:02:07.950Z,4.50
2018-11-02T11:04:12.014Z,7.33
2018-11-02T11:06:16.056Z,5.93
2018-11-02T11:08:20.366Z,6.00
2018-11-02T11:10:24.458Z,4.03
2018-11-02T11:12:29.667Z,4.20
2018-11-02T11:14:33.682Z,4.27
2018-11-02T11:16:37.974Z,3.70
2018-11-02T11:18:42.075Z,5.75
2018-11-02T11:20:46.151Z,6.97
2018-11-02T11:22:50.188Z,6.17
2018-11-02T11:24:54.242Z,8.20
2018-11-02T11:29:15.245Z,6.17
2018-11-02T11:31:19.284Z,4.80
2018-11-02T11:33:23.354Z,3.83
2018-11-02T11:35:27.471Z,5.37
2018-11-02T11:37:31.547Z,5.90
2018-11-02T11:39:35.679Z,5.50
2018-11-02T11:41:39.706Z,5.78
2018-11-02T11:43:43.754Z,4.22
2018-11-02T11:45:47.822Z,7.90
2018-11-02T11:47:51.941Z,6.57
2018-11-02T11:49:56.016Z,7.80
2018-11-02T11:52:00.097Z,4.47
2018-11-02T11:54:04.168Z,4.97
2018-11-02T11:56:08.693Z,5.87
2018-11-02T11:58:12.793Z,6.47
2018-11-02T12:00:19.949Z,4.33
2018-11-02T12:02:24.673Z,7.33
2018-11-02T12:04:28.682Z,5.22
2018-11-02T12:06:32.678Z,7.50
2018-11-02T12:08:36.763Z,5.72
2018-11-02T12:10:40.802Z,4.90
2018-11-02T12:12:44.851Z,6.80
2018-11-02T12:14:48.913Z,5.37
2018-11-02T12:16:52.997Z,7.50
2018-11-02T12:18:57.077Z,5.97
2018-11-02T12:21:01.134Z,4.33
2018-11-02T12:23:05.580Z,3.87
2018-11-02T12:25:11.152Z,7.57
2018-11-02T12:27:15.202Z,5.87
2018-11-02T12:29:19.330Z,4.15
2018-11-02T12:31:23.485Z,3.92
2018-11-02T12:33:27.546Z,2.77
2018-11-02T12:35:31.642Z,5.83
2018-11-02T12:37:36.764Z,3.43
2018-11-02T12:39:41.108Z,4.30
2018-11-02T12:41:45.165Z,6.90
2018-11-02T12:43:49.756Z,3.17
2018-11-02T12:45:53.685Z,7.50
2018-11-02T12:47:57.776Z,4.33
2018-11-02T12:50:01.844Z,5.90
2018-11-02T12:52:06.371Z,6.10
2018-11-02T12:54:11.570Z,5.87
2018-11-02T12:56:15.639Z,4.50
2018-11-02T12:58:19.789Z,4.67
2018-11-02T13:00:27.034Z,5.27
2018-11-02T13:02:31.765Z,3.12
2018-11-02T13:04:35.863Z,5.50
2018-11-02T13:06:39.934Z,4.90
2018-11-02T13:08:44.021Z,3.27
2018-11-02T13:10:48.102Z,3.17
2018-11-02T13:12:52.165Z,2.73
2018-11-02T13:14:56.223Z,3.08
2018-11-02T13:17:00.271Z,5.42
2018-11-02T13:19:04.391Z,3.80
2018-11-02T13:21:08.454Z,3.45
2018-11-02T13:23:13.627Z,3.80
2018-11-02T13:25:18.845Z,4.10
2018-11-02T13:27:22.888Z,3.67
2018-11-02T13:29:26.986Z,3.98
2018-11-02T13:31:31.185Z,2.47
2018-11-02T13:38:13.131Z,2.33
2018-11-02T13:40:18.019Z,6.27
2018-11-02T13:42:22.173Z,2.70
2018-11-02T13:44:26.267Z,4.10
2018-11-02T13:46:30.366Z,4.50
2018-11-02T13:48:34.416Z,3.00
2018-11-02T13:50:38.498Z,2.93
2018-11-02T13:52:43.181Z,3.87
2018-11-02T13:54:47.330Z,2.90
2018-11-02T13:56:51.443Z,3.30
2018-11-02T13:58:55.561Z,3.73
2018-11-02T14:00:59.643Z,2.20
2018-11-02T14:03:03.651Z,4.93
2018-11-02T14:05:09.792Z,2.70
2018-11-02T14:07:13.833Z,3.90
2018-11-02T14:09:17.926Z,4.30
2018-11-02T14:11:22.053Z,2.25
2018-11-02T14:13:26.110Z,5.93
2018-11-02T14:15:30.148Z,4.60
2018-11-02T14:17:34.231Z,2.93
2018-11-02T14:19:38.317Z,3.92
2018-11-02T14:21:42.398Z,2.20
2018-11-02T14:23:46.478Z,3.77
2018-11-02T14:25:50.561Z,2.83
2018-11-02T14:27:54.665Z,3.67
2018-11-02T14:29:58.766Z,3.43
2018-11-02T14:32:02.806Z,3.00
2018-11-02T14:34:07.026Z,2.33
2018-11-02T14:36:11.093Z,3.77
2018-11-02T14:38:15.234Z,4.80
2018-11-02T14:40:19.381Z,5.10
2018-11-02T14:42:23.435Z,3.40
2018-11-02T14:44:27.514Z,2.73
2018-11-02T14:46:31.649Z,3.97
2018-11-02T14:48:35.678Z,2.53
2018-11-02T14:50:39.751Z,3.60
2018-11-02T14:52:43.809Z,2.55
2018-11-02T14:54:47.927Z,4.17
2018-11-02T14:56:52.011Z,3.13
2018-11-02T14:58:56.087Z,1.62
2018-11-02T15:01:00.182Z,4.13
2018-11-02T15:03:04.264Z,2.20
2018-11-02T15:05:09.599Z,2.97
2018-11-02T15:07:13.738Z,3.37
2018-11-02T15:09:17.878Z,2.35
2018-11-02T15:11:22.214Z,4.92
2018-11-02T15:13:26.257Z,3.55
2018-11-02T15:15:30.385Z,5.90
2018-11-02T15:17:34.561Z,4.90
2018-11-02T15:19:38.657Z,4.40
2018-11-02T15:21:42.778Z,1.77
2018-11-02T15:23:47.022Z,2.43
2018-11-02T15:25:52.083Z,3.67
2018-11-02T15:27:56.193Z,3.33
2018-11-02T15:30:00.282Z,3.63
2018-11-02T15:32:04.386Z,2.63
2018-11-02T15:34:08.846Z,3.87
2018-11-02T15:36:12.958Z,2.93
2018-11-02T15:38:17.007Z,4.75
2018-11-02T15:40:21.142Z,2.85
2018-11-02T15:42:25.241Z,2.73
2018-11-02T15:44:29.362Z,4.33
2018-11-02T15:46:33.506Z,2.80
2018-11-02T15:48:37.651Z,2.33
2018-11-02T15:50:41.738Z,4.33
2018-11-02T15:52:45.795Z,3.80
2018-11-02T15:54:49.892Z,2.37
2018-11-02T15:56:54.011Z,6.00
2018-11-02T15:58:58.092Z,4.08
2018-11-02T16:01:02.222Z,3.20
2018-11-02T16:03:06.554Z,3.40
2018-11-02T16:05:11.246Z,5.77
2018-11-02T16:07:15.371Z,2.43
2018-11-02T16:09:19.572Z,3.17
2018-11-02T16:11:24.395Z,2.33
2018-11-02T16:13:28.485Z,2.15
2018-11-02T16:15:32.543Z,3.60
2018-11-02T16:17:36.998Z,3.83
2018-11-02T16:19:41.125Z,2.98
2018-11-02T16:21:45.251Z,3.43
2018-11-02T16:23:49.370Z,5.97
2018-11-02T16:25:53.503Z,3.83
2018-11-02T16:27:57.566Z,4.50
2018-11-02T16:30:01.654Z,2.20
2018-11-02T16:32:05.937Z,3.65
2018-11-02T16:34:10.072Z,2.10
2018-11-02T16:36:14.085Z,7.17
2018-11-02T16:38:18.261Z,4.70
2018-11-02T16:40:22.358Z,1.50
2018-11-02T16:42:26.474Z,3.30
2018-11-02T16:44:30.585Z,7.83
2018-11-02T16:46:34.716Z,8.67
2018-11-02T16:48:38.915Z,10.53
2018-11-02T16:50:43.033Z,3.37
2018-11-02T16:52:47.191Z,3.23
2018-11-02T16:54:51.338Z,3.30
2018-11-02T16:56:55.422Z,6.47
2018-11-02T16:58:59.495Z,5.00
2018-11-02T17:01:03.552Z,5.47
2018-11-02T17:03:07.683Z,3.52
2018-11-02T17:05:12.888Z,2.40
2018-11-02T17:07:18.017Z,3.35
2018-11-02T17:09:22.969Z,3.30
2018-11-02T17:11:28.324Z,2.27
2018-11-02T17:13:33.962Z,3.50
2018-11-02T17:15:39.858Z,3.33
2018-11-02T17:17:45.736Z,3.20
2018-11-02T17:19:51.036Z,3.33
2018-11-02T17:21:56.871Z,3.33
2018-11-02T17:24:02.500Z,4.78
2018-11-02T17:26:07.539Z,3.33
2018-11-02T17:28:11.644Z,2.33
2018-11-02T17:30:17.064Z,4.10
2018-11-02T17:32:21.482Z,5.47
2018-11-02T17:34:26.262Z,5.60
2018-11-02T17:36:30.530Z,2.67
2018-11-02T17:38:34.554Z,5.93
2018-11-02T17:40:39.077Z,6.08
2018-11-02T17:42:45.218Z,2.10
2018-11-02T17:44:49.374Z,6.03
2018-11-02T17:46:53.535Z,6.00
2018-11-02T17:48:57.635Z,3.92
2018-11-02T17:51:01.738Z,4.50
2018-11-02T17:53:05.904Z,5.53
2018-11-02T17:55:10.178Z,3.42
2018-11-02T17:57:14.334Z,4.97
2018-11-02T17:59:18.438Z,2.72
2018-11-02T18:01:22.499Z,7.90
2018-11-02T18:03:26.721Z,4.10
2018-11-02T18:05:30.853Z,2.07
2018-11-02T18:07:34.984Z,3.33
2018-11-02T18:09:39.176Z,5.50
2018-11-02T18:11:43.430Z,2.60
2018-11-02T18:13:47.536Z,4.80
2018-11-02T18:15:51.581Z,2.77
2018-11-02T18:17:55.707Z,5.40
2018-11-02T18:19:59.827Z,4.53
2018-11-02T18:22:04.054Z,3.42
2018-11-02T18:24:08.137Z,5.53
2018-11-02T18:26:13.396Z,11.93
2018-11-02T18:28:17.558Z,8.73
2018-11-02T18:30:21.666Z,7.23
2018-11-02T18:32:25.762Z,3.70
2018-11-02T18:34:29.866Z,3.77
2018-11-02T18:36:34.095Z,4.67
2018-11-02T18:38:38.194Z,4.53
2018-11-02T18:40:42.271Z,4.20
2018-11-02T18:42:46.477Z,2.50
2018-11-02T18:44:50.547Z,6.97
2018-11-02T18:46:54.687Z,3.70
2018-11-02T18:48:58.798Z,6.92
2018-11-02T18:51:02.998Z,5.47
2018-11-02T18:53:07.384Z,3.10
2018-11-02T18:55:12.054Z,2.40
2018-11-02T18:57:16.223Z,5.90
2018-11-02T18:59:20.387Z,3.75
2018-11-02T19:01:24.694Z,2.60
2018-11-02T19:03:30.276Z,7.37
2018-11-02T19:05:34.456Z,3.37
2018-11-02T19:07:38.638Z,5.40
2018-11-02T19:09:42.748Z,5.17
2018-11-02T19:11:46.880Z,5.87
2018-11-02T19:13:51.045Z,4.85
2018-11-02T19:15:55.178Z,5.83
2018-11-02T19:17:59.330Z,4.37
2018-11-02T19:20:03.715Z,2.27
2018-11-02T19:22:07.682Z,3.77
2018-11-02T19:24:12.046Z,2.73
2018-11-02T19:26:16.274Z,2.87
2018-11-02T19:28:20.385Z,4.70
2018-11-02T19:30:24.533Z,6.47
2018-11-02T19:32:28.753Z,5.12
2018-11-02T19:34:34.311Z,4.40
2018-11-02T19:36:38.259Z,4.10
2018-11-02T19:38:42.580Z,3.10
2018-11-02T19:40:46.735Z,5.50
2018-11-02T19:42:50.865Z,2.80
2018-11-02T19:44:55.042Z,4.60
2018-11-02T19:46:59.217Z,5.73
2018-11-02T19:49:03.501Z,7.12
2018-11-02T19:51:07.586Z,7.03
2018-11-02T19:53:11.744Z,10.10
2018-11-02T19:55:15.934Z,4.80
2018-11-02T19:57:20.104Z,4.40
2018-11-02T19:59:24.243Z,4.80
2018-11-02T20:01:28.485Z,4.42
2018-11-02T20:03:32.588Z,2.63
2018-11-02T20:05:36.769Z,4.67
2018-11-02T20:07:41.276Z,3.50
2018-11-02T20:09:45.409Z,3.53
2018-11-02T20:11:49.542Z,4.60
2018-11-02T20:13:54.654Z,2.50
2018-11-02T20:15:58.783Z,3.55
2018-11-02T20:18:02.853Z,5.93
2018-11-02T20:20:08.581Z,5.83
2018-11-02T20:22:12.838Z,4.13
2018-11-02T20:24:16.988Z,5.97
2018-11-02T20:26:21.242Z,3.27
2018-11-02T20:28:25.889Z,3.80
2018-11-02T20:30:30.179Z,4.90
2018-11-02T20:32:35.294Z,4.80
2018-11-02T20:34:39.563Z,8.00
2018-11-02T20:36:44.069Z,5.43
2018-11-02T20:38:48.318Z,3.58
2018-11-02T20:40:52.390Z,5.23
2018-11-02T20:42:56.570Z,5.30
2018-11-02T20:45:00.818Z,5.42
2018-11-02T20:47:04.976Z,4.93
2018-11-02T20:49:09.180Z,5.90
2018-11-02T20:51:13.542Z,4.17
2018-11-02T20:53:17.701Z,4.13
2018-11-02T20:55:21.937Z,6.13
2018-11-02T20:57:26.090Z,6.83
2018-11-02T20:59:30.302Z,4.97
2018-11-02T21:01:34.960Z,6.95
2018-11-02T21:03:39.073Z,6.10
2018-11-02T21:05:43.188Z,4.53
2018-11-02T21:07:47.779Z,3.13
2018-11-02T21:09:51.852Z,3.57
2018-11-02T21:11:56.058Z,4.40
2018-11-02T21:14:00.266Z,3.33
2018-11-02T21:16:05.245Z,5.27
2018-11-02T21:18:09.310Z,4.85
2018-11-02T21:20:14.795Z,5.53
2018-11-02T21:22:18.898Z,5.73
2018-11-02T21:24:23.110Z,4.50
2018-11-02T21:26:27.278Z,4.75
2018-11-02T21:28:31.385Z,9.33
2018-11-02T21:30:35.639Z,5.37
2018-11-02T21:32:39.856Z,6.47
2018-11-02T21:34:43.909Z,3.40
2018-11-02T21:36:48.132Z,4.33
2018-11-02T21:38:52.389Z,4.87
2018-11-02T21:40:56.405Z,3.90
2018-11-02T21:43:00.470Z,5.35
2018-11-02T21:45:04.666Z,5.37
2018-11-02T21:47:08.785Z,3.22
2018-11-02T21:49:12.987Z,3.40
2018-11-02T21:51:17.080Z,5.90
2018-11-02T21:53:21.208Z,3.77
2018-11-02T21:55:26.319Z,4.42
2018-11-02T21:57:30.435Z,3.30
2018-11-02T21:59:35.812Z,4.87
2018-11-02T22:01:39.999Z,4.87
2018-11-02T22:03:44.184Z,3.57
2018-11-02T22:05:48.361Z,3.77
2018-11-02T22:07:52.416Z,3.25
2018-11-02T22:09:56.547Z,5.63
2018-11-02T22:12:00.635Z,3.75
2018-11-02T22:14:04.948Z,4.37
2018-11-02T22:16:09.094Z,4.40
2018-11-02T22:18:13.202Z,3.47
2018-11-02T22:20:17.547Z,3.43
2018-11-02T22:22:23.215Z,4.55
2018-11-02T22:24:27.382Z,3.53
2018-11-02T22:26:31.513Z,5.40
2018-11-02T22:28:35.883Z,5.00
2018-11-02T22:30:40.047Z,8.30
2018-11-02T22:32:44.150Z,4.03
2018-11-02T22:34:48.194Z,4.40
2018-11-02T22:36:52.290Z,4.75
2018-11-02T22:38:56.354Z,3.93
2018-11-02T22:41:00.475Z,6.25
2018-11-02T22:43:04.556Z,3.57
2018-11-02T22:45:09.692Z,5.07
2018-11-02T22:47:13.791Z,9.13
2018-11-02T22:49:17.895Z,15.17
2018-11-02T22:51:21.985Z,76.55
2018-11-02T22:53:26.098Z,63.80
2018-11-02T22:55:30.178Z,40.92
2018-11-02T22:57:34.267Z,9.90
2018-11-02T22:59:38.353Z,5.00
2018-11-02T23:01:42.436Z,8.23
2018-11-02T23:03:46.542Z,6.30
2018-11-02T23:05:50.624Z,4.20
2018-11-02T23:07:54.682Z,6.53
2018-11-02T23:09:58.782Z,4.83
2018-11-02T23:12:02.907Z,6.07
2018-11-02T23:14:07.579Z,6.75
2018-11-02T23:16:12.076Z,5.22
2018-11-02T23:18:17.072Z,7.47
2018-11-02T23:20:21.193Z,6.67
2018-11-02T23:22:25.497Z,5.72
2018-11-02T23:24:29.587Z,5.93
2018-11-02T23:26:33.675Z,14.90
2018-11-02T23:28:38.358Z,11.50
2018-11-02T23:30:42.479Z,6.00
2018-11-02T23:32:46.562Z,5.00
2018-11-02T23:34:50.630Z,4.85
2018-11-02T23:36:54.743Z,4.37
2018-11-02T23:38:58.834Z,9.83
2018-11-02T23:41:02.922Z,5.50
2018-11-02T23:43:06.991Z,4.27
2018-11-02T23:45:11.789Z,3.37
2018-11-02T23:47:16.520Z,7.87
2018-11-02T23:49:20.598Z,7.80
2018-11-02T23:51:24.666Z,7.30
2018-11-02T23:53:28.743Z,4.40
2018-11-02T23:55:32.846Z,5.83
2018-11-02T23:57:37.085Z,4.97
2018-11-02T23:59:41.137Z,4.00
